Nearby METAR Reports

 

KLEX - Lexington, Kentucky, USA
Distance from station: WNW 7mi, 11km
Updated: Fri, 28-Jul-2017 12:54pm EDT
Overcast
Overcast
 Wind from SW
Wind: SW 6 mph , 9 km/h
Temperature: 77°F , 25°C
Dew Point: 72°F , 22°C
Humidity: 83%
Barometer: 29.81 inHg , 1009.5 hPa
Clouds: Overcast
Visibility: 8 miles , 13 km
Cloud details: Few Clouds 700 ft
Mostly cloudy 1700 ft
Overcast 2300 ft
2017/07/28 16:54 KLEX 281654Z 23005KT 8SM FEW007 BKN017 OVC023 25/22 A2981 RMK AO2 LTG DSNT NE AND NW SLP086 T02500222
KFFT - Frankfort, Kentucky, USA
Distance from station: WNW 26mi, 42km
Updated: Fri, 28-Jul-2017 12:56pm EDT
Nearby thunderstorm, Light rain, Mist, Overcast
Nearby thunderstorm, Light rain, Mist, Overcast
 Wind from N
Wind: N 10 mph , 17 km/h
Temperature: 75°F , 24°C
Dew Point: 72°F , 22°C
Humidity: 89%
Barometer: 29.81 inHg , 1009.5 hPa
Summary: Nearby thunderstorm, Light rain, Mist
Clouds: Overcast
Visibility: 3 miles , 5 km
Cloud details: Mostly cloudy 700 ft
Overcast 1600 ft
2017/07/28 16:56 KFFT 281656Z AUTO 01009KT 3SM VCTS -RA BR BKN007 OVC016 24/22 A2981 RMK AO2 LTG DSNT SW AND W CIG 005V010 P0002 T02440222
 
KIOB - Mount Sterling, Kentucky, USA
Distance from station: E 27mi, 44km
Updated: Fri, 28-Jul-2017 12:55pm EDT
Overcast
Overcast
 Wind from calm
Wind: Calm
Temperature: 79°F , 26°C
Dew Point: 72°F , 22°C
Humidity: 79%
Barometer: 29.82 inHg , 1009.8 hPa
Clouds: Overcast
Visibility: 10 miles , 16 km
Cloud details: Mostly cloudy 1900 ft
Overcast 2600 ft
2017/07/28 16:55 KIOB 281655Z AUTO 00000KT 10SM BKN019 OVC026 26/22 A2982 RMK AO2
KDVK - Danville, Kentucky, USA
Distance from station: SSW 33mi, 53km
Updated: Fri, 28-Jul-2017 12:55pm EDT
Overcast
Overcast
 Wind from W
Wind: W 8 mph , 13 km/h
Temperature: 79°F , 26°C
Dew Point: 72°F , 22°C
Humidity: 79%
Barometer: 29.82 inHg , 1009.8 hPa
Clouds: Overcast
Visibility: 10 miles , 16 km
Cloud details: Partly cloudy 1500 ft
Overcast 2000 ft
2017/07/28 16:55 KDVK 281655Z AUTO 27007KT 10SM SCT015 OVC020 26/22 A2982 RMK AO2